sensor_id;sensor_type;location;lat;lon;timestamp;temperature;humidity
69628;DHT22;56850;51.984;5.088;2023-03-11T00:00:34;3.10;66.20
69628;DHT22;56850;51.984;5.088;2023-03-11T00:03:03;3.10;65.50
69628;DHT22;56850;51.984;5.088;2023-03-11T00:05:35;3.10;65.40
69628;DHT22;56850;51.984;5.088;2023-03-11T00:08:04;3.10;65.60
69628;DHT22;56850;51.984;5.088;2023-03-11T00:10:36;3.10;65.50
69628;DHT22;56850;51.984;5.088;2023-03-11T00:13:04;3.10;65.60
69628;DHT22;56850;51.984;5.088;2023-03-11T00:15:32;3.10;65.30
69628;DHT22;56850;51.984;5.088;2023-03-11T00:17:59;3.00;65.40
69628;DHT22;56850;51.984;5.088;2023-03-11T00:20:31;3.00;65.50
69628;DHT22;56850;51.984;5.088;2023-03-11T00:22:59;3.00;65.50
69628;DHT22;56850;51.984;5.088;2023-03-11T00:25:29;3.00;65.30
69628;DHT22;56850;51.984;5.088;2023-03-11T00:27:56;3.00;65.20
69628;DHT22;56850;51.984;5.088;2023-03-11T00:30:24;3.00;65.30
69628;DHT22;56850;51.984;5.088;2023-03-11T00:32:53;3.00;65.20
69628;DHT22;56850;51.984;5.088;2023-03-11T00:35:23;3.00;65.10
69628;DHT22;56850;51.984;5.088;2023-03-11T00:37:57;3.00;65.20
69628;DHT22;56850;51.984;5.088;2023-03-11T00:40:27;3.00;65.40
69628;DHT22;56850;51.984;5.088;2023-03-11T00:42:54;3.00;65.40
69628;DHT22;56850;51.984;5.088;2023-03-11T00:45:21;3.00;65.50
69628;DHT22;56850;51.984;5.088;2023-03-11T00:47:50;3.00;65.50
69628;DHT22;56850;51.984;5.088;2023-03-11T00:50:23;3.00;65.50
69628;DHT22;56850;51.984;5.088;2023-03-11T00:52:52;3.00;65.40
69628;DHT22;56850;51.984;5.088;2023-03-11T00:55:23;3.00;65.20
69628;DHT22;56850;51.984;5.088;2023-03-11T00:58:01;3.00;65.30
69628;DHT22;56850;51.984;5.088;2023-03-11T01:00:35;3.00;65.40
69628;DHT22;56850;51.984;5.088;2023-03-11T01:03:03;3.00;65.30
69628;DHT22;56850;51.984;5.088;2023-03-11T01:05:31;2.90;65.30
69628;DHT22;56850;51.984;5.088;2023-03-11T01:08:02;2.90;65.20
69628;DHT22;56850;51.984;5.088;2023-03-11T01:10:34;2.90;65.20
69628;DHT22;56850;51.984;5.088;2023-03-11T01:13:02;2.80;65.20
69628;DHT22;56850;51.984;5.088;2023-03-11T01:15:33;2.80;65.20
69628;DHT22;56850;51.984;5.088;2023-03-11T01:18:00;2.80;65.30
69628;DHT22;56850;51.984;5.088;2023-03-11T01:20:28;2.70;65.40
69628;DHT22;56850;51.984;5.088;2023-03-11T01:22:55;2.70;65.60
69628;DHT22;56850;51.984;5.088;2023-03-11T01:25:23;2.70;65.70
69628;DHT22;56850;51.984;5.088;2023-03-11T01:27:50;2.70;65.70
69628;DHT22;56850;51.984;5.088;2023-03-11T01:30:20;2.60;65.70
69628;DHT22;56850;51.984;5.088;2023-03-11T01:32:50;2.60;65.80
69628;DHT22;56850;51.984;5.088;2023-03-11T01:35:19;2.50;65.90
69628;DHT22;56850;51.984;5.088;2023-03-11T01:37:46;2.50;65.90
69628;DHT22;56850;51.984;5.088;2023-03-11T01:40:20;2.50;66.10
69628;DHT22;56850;51.984;5.088;2023-03-11T01:42:48;2.60;66.30
69628;DHT22;56850;51.984;5.088;2023-03-11T01:46:03;2.50;66.10
69628;DHT22;56850;51.984;5.088;2023-03-11T01:48:29;2.50;66.00
69628;DHT22;56850;51.984;5.088;2023-03-11T01:50:56;2.40;66.20
69628;DHT22;56850;51.984;5.088;2023-03-11T01:53:23;2.40;66.40
69628;DHT22;56850;51.984;5.088;2023-03-11T01:55:50;2.40;66.40
69628;DHT22;56850;51.984;5.088;2023-03-11T01:58:25;2.40;66.40
69628;DHT22;56850;51.984;5.088;2023-03-11T02:00:54;2.40;66.50
69628;DHT22;56850;51.984;5.088;2023-03-11T02:03:32;2.30;66.50
69628;DHT22;56850;51.984;5.088;2023-03-11T02:06:01;2.40;66.70
69628;DHT22;56850;51.984;5.088;2023-03-11T02:08:29;2.40;66.80
69628;DHT22;56850;51.984;5.088;2023-03-11T02:11:04;2.40;66.80
69628;DHT22;56850;51.984;5.088;2023-03-11T02:13:32;2.40;66.70
69628;DHT22;56850;51.984;5.088;2023-03-11T02:16:02;2.40;66.80
69628;DHT22;56850;51.984;5.088;2023-03-11T02:18:29;2.40;66.90
69628;DHT22;56850;51.984;5.088;2023-03-11T02:21:25;2.40;66.90
69628;DHT22;56850;51.984;5.088;2023-03-11T02:26:54;2.40;66.80
69628;DHT22;56850;51.984;5.088;2023-03-11T02:29:24;2.30;66.90
69628;DHT22;56850;51.984;5.088;2023-03-11T02:31:53;2.30;67.00
69628;DHT22;56850;51.984;5.088;2023-03-11T02:34:36;2.30;67.10
69628;DHT22;56850;51.984;5.088;2023-03-11T02:37:07;2.30;67.20
69628;DHT22;56850;51.984;5.088;2023-03-11T02:39:40;2.30;67.30
69628;DHT22;56850;51.984;5.088;2023-03-11T02:44:43;2.30;67.40
69628;DHT22;56850;51.984;5.088;2023-03-11T02:47:12;2.30;67.40
69628;DHT22;56850;51.984;5.088;2023-03-11T02:49:39;2.30;67.40
69628;DHT22;56850;51.984;5.088;2023-03-11T02:52:06;2.30;67.40
69628;DHT22;56850;51.984;5.088;2023-03-11T02:54:33;2.30;67.50
69628;DHT22;56850;51.984;5.088;2023-03-11T02:57:00;2.30;67.50
69628;DHT22;56850;51.984;5.088;2023-03-11T02:59:27;2.30;67.60
69628;DHT22;56850;51.984;5.088;2023-03-11T03:01:54;2.30;67.70
69628;DHT22;56850;51.984;5.088;2023-03-11T03:04:21;2.30;67.70
69628;DHT22;56850;51.984;5.088;2023-03-11T03:06:48;2.30;67.90
69628;DHT22;56850;51.984;5.088;2023-03-11T03:09:16;2.30;67.80
69628;DHT22;56850;51.984;5.088;2023-03-11T03:11:43;2.30;67.90
69628;DHT22;56850;51.984;5.088;2023-03-11T03:14:10;2.30;67.90
69628;DHT22;56850;51.984;5.088;2023-03-11T03:16:37;2.20;67.90
69628;DHT22;56850;51.984;5.088;2023-03-11T03:19:04;2.20;68.10
69628;DHT22;56850;51.984;5.088;2023-03-11T03:21:31;2.20;68.10
69628;DHT22;56850;51.984;5.088;2023-03-11T03:23:58;2.20;68.20
69628;DHT22;56850;51.984;5.088;2023-03-11T03:26:25;2.20;68.30
69628;DHT22;56850;51.984;5.088;2023-03-11T03:28:52;2.20;68.50
69628;DHT22;56850;51.984;5.088;2023-03-11T03:31:19;2.20;68.50
69628;DHT22;56850;51.984;5.088;2023-03-11T03:33:46;2.20;68.60
69628;DHT22;56850;51.984;5.088;2023-03-11T03:36:14;2.20;68.60
69628;DHT22;56850;51.984;5.088;2023-03-11T03:38:44;2.20;68.60
69628;DHT22;56850;51.984;5.088;2023-03-11T03:41:14;2.20;68.70
69628;DHT22;56850;51.984;5.088;2023-03-11T03:43:41;2.20;68.70
69628;DHT22;56850;51.984;5.088;2023-03-11T03:46:09;2.10;68.70
69628;DHT22;56850;51.984;5.088;2023-03-11T03:48:41;2.10;68.80
69628;DHT22;56850;51.984;5.088;2023-03-11T03:51:11;2.10;68.90
69628;DHT22;56850;51.984;5.088;2023-03-11T03:53:44;2.10;69.00
69628;DHT22;56850;51.984;5.088;2023-03-11T03:56:15;2.10;69.10
69628;DHT22;56850;51.984;5.088;2023-03-11T03:58:43;2.10;69.10
69628;DHT22;56850;51.984;5.088;2023-03-11T04:01:11;2.10;69.10
69628;DHT22;56850;51.984;5.088;2023-03-11T04:03:39;2.10;69.10
69628;DHT22;56850;51.984;5.088;2023-03-11T04:06:23;2.10;69.10
69628;DHT22;56850;51.984;5.088;2023-03-11T04:08:58;2.10;69.10
69628;DHT22;56850;51.984;5.088;2023-03-11T04:11:28;2.10;69.10
69628;DHT22;56850;51.984;5.088;2023-03-11T04:13:55;2.00;69.20
69628;DHT22;56850;51.984;5.088;2023-03-11T04:16:23;2.00;69.20
69628;DHT22;56850;51.984;5.088;2023-03-11T04:18:56;2.00;69.20
69628;DHT22;56850;51.984;5.088;2023-03-11T04:21:23;2.00;69.30
69628;DHT22;56850;51.984;5.088;2023-03-11T04:23:50;2.00;69.30
69628;DHT22;56850;51.984;5.088;2023-03-11T04:26:20;2.00;69.40
69628;DHT22;56850;51.984;5.088;2023-03-11T04:28:47;2.00;69.30
69628;DHT22;56850;51.984;5.088;2023-03-11T04:31:15;2.00;69.30
69628;DHT22;56850;51.984;5.088;2023-03-11T04:33:42;2.00;69.30
69628;DHT22;56850;51.984;5.088;2023-03-11T04:36:11;2.00;69.30
69628;DHT22;56850;51.984;5.088;2023-03-11T04:38:38;2.00;69.30
69628;DHT22;56850;51.984;5.088;2023-03-11T04:41:08;2.00;69.30
69628;DHT22;56850;51.984;5.088;2023-03-11T04:43:38;2.00;69.30
69628;DHT22;56850;51.984;5.088;2023-03-11T04:46:05;1.90;69.40
69628;DHT22;56850;51.984;5.088;2023-03-11T04:48:32;1.90;69.40
69628;DHT22;56850;51.984;5.088;2023-03-11T04:50:59;1.90;69.40
69628;DHT22;56850;51.984;5.088;2023-03-11T04:53:27;1.90;69.40
69628;DHT22;56850;51.984;5.088;2023-03-11T04:55:55;1.90;69.50
69628;DHT22;56850;51.984;5.088;2023-03-11T04:58:22;1.90;69.40
69628;DHT22;56850;51.984;5.088;2023-03-11T05:00:49;1.90;69.40
69628;DHT22;56850;51.984;5.088;2023-03-11T05:03:16;1.90;69.50
69628;DHT22;56850;51.984;5.088;2023-03-11T05:05:44;1.80;69.50
69628;DHT22;56850;51.984;5.088;2023-03-11T05:08:11;1.90;69.50
69628;DHT22;56850;51.984;5.088;2023-03-11T05:10:39;1.80;69.50
69628;DHT22;56850;51.984;5.088;2023-03-11T05:13:08;1.80;69.50
69628;DHT22;56850;51.984;5.088;2023-03-11T05:15:37;1.80;69.50
69628;DHT22;56850;51.984;5.088;2023-03-11T05:18:05;1.80;69.50
69628;DHT22;56850;51.984;5.088;2023-03-11T05:20:34;1.80;69.50
69628;DHT22;56850;51.984;5.088;2023-03-11T05:23:02;1.80;69.50
69628;DHT22;56850;51.984;5.088;2023-03-11T05:25:31;1.70;69.60
69628;DHT22;56850;51.984;5.088;2023-03-11T05:27:58;1.70;69.50
69628;DHT22;56850;51.984;5.088;2023-03-11T05:30:25;1.70;69.60
69628;DHT22;56850;51.984;5.088;2023-03-11T05:32:53;1.70;69.60
69628;DHT22;56850;51.984;5.088;2023-03-11T05:35:22;1.60;69.60
69628;DHT22;56850;51.984;5.088;2023-03-11T05:37:49;1.70;69.70
69628;DHT22;56850;51.984;5.088;2023-03-11T05:40:17;1.70;69.70
69628;DHT22;56850;51.984;5.088;2023-03-11T05:42:45;1.60;69.60
69628;DHT22;56850;51.984;5.088;2023-03-11T05:45:14;1.60;69.70
69628;DHT22;56850;51.984;5.088;2023-03-11T05:47:43;1.60;69.70
69628;DHT22;56850;51.984;5.088;2023-03-11T05:50:12;1.60;69.70
69628;DHT22;56850;51.984;5.088;2023-03-11T05:52:41;1.60;69.80
69628;DHT22;56850;51.984;5.088;2023-03-11T05:55:08;1.50;69.70
69628;DHT22;56850;51.984;5.088;2023-03-11T05:57:39;1.50;69.80
69628;DHT22;56850;51.984;5.088;2023-03-11T06:00:07;1.50;69.80
69628;DHT22;56850;51.984;5.088;2023-03-11T06:02:45;1.50;69.80
69628;DHT22;56850;51.984;5.088;2023-03-11T06:05:15;1.50;69.80
69628;DHT22;56850;51.984;5.088;2023-03-11T06:07:45;1.50;69.80
69628;DHT22;56850;51.984;5.088;2023-03-11T06:10:12;1.50;69.90
69628;DHT22;56850;51.984;5.088;2023-03-11T06:12:40;1.50;69.80
69628;DHT22;56850;51.984;5.088;2023-03-11T06:15:15;1.40;69.80
69628;DHT22;56850;51.984;5.088;2023-03-11T06:17:42;1.40;69.90
69628;DHT22;56850;51.984;5.088;2023-03-11T06:20:09;1.40;69.90
69628;DHT22;56850;51.984;5.088;2023-03-11T06:22:36;1.40;70.00
69628;DHT22;56850;51.984;5.088;2023-03-11T06:25:06;1.40;70.00
69628;DHT22;56850;51.984;5.088;2023-03-11T06:27:35;1.40;70.00
69628;DHT22;56850;51.984;5.088;2023-03-11T06:30:03;1.40;70.00
69628;DHT22;56850;51.984;5.088;2023-03-11T06:32:35;1.30;70.00
69628;DHT22;56850;51.984;5.088;2023-03-11T06:35:04;1.40;70.00
69628;DHT22;56850;51.984;5.088;2023-03-11T06:37:35;1.40;70.00
69628;DHT22;56850;51.984;5.088;2023-03-11T06:40:04;1.40;70.00
69628;DHT22;56850;51.984;5.088;2023-03-11T06:42:34;1.30;70.00
69628;DHT22;56850;51.984;5.088;2023-03-11T06:45:02;1.30;70.10
69628;DHT22;56850;51.984;5.088;2023-03-11T06:47:29;1.30;70.10
69628;DHT22;56850;51.984;5.088;2023-03-11T06:49:56;1.30;70.20
69628;DHT22;56850;51.984;5.088;2023-03-11T06:52:25;1.30;70.20
69628;DHT22;56850;51.984;5.088;2023-03-11T06:54:53;1.40;70.20
69628;DHT22;56850;51.984;5.088;2023-03-11T06:57:20;1.40;70.30
69628;DHT22;56850;51.984;5.088;2023-03-11T06:59:49;1.40;70.40
69628;DHT22;56850;51.984;5.088;2023-03-11T07:02:17;1.40;70.40
69628;DHT22;56850;51.984;5.088;2023-03-11T07:04:44;1.40;70.60
69628;DHT22;56850;51.984;5.088;2023-03-11T07:07:14;1.40;70.60
69628;DHT22;56850;51.984;5.088;2023-03-11T07:09:41;1.50;70.60
69628;DHT22;56850;51.984;5.088;2023-03-11T07:12:11;1.50;70.70
69628;DHT22;56850;51.984;5.088;2023-03-11T07:14:40;1.50;70.70
69628;DHT22;56850;51.984;5.088;2023-03-11T07:17:07;1.50;70.70
69628;DHT22;56850;51.984;5.088;2023-03-11T07:19:40;1.60;70.80
69628;DHT22;56850;51.984;5.088;2023-03-11T07:22:07;1.60;70.90
69628;DHT22;56850;51.984;5.088;2023-03-11T07:24:34;1.60;71.00
69628;DHT22;56850;51.984;5.088;2023-03-11T07:27:01;1.70;71.10
69628;DHT22;56850;51.984;5.088;2023-03-11T07:29:28;1.70;71.20
69628;DHT22;56850;51.984;5.088;2023-03-11T07:31:55;1.80;71.20
69628;DHT22;56850;51.984;5.088;2023-03-11T07:34:24;1.80;71.30
69628;DHT22;56850;51.984;5.088;2023-03-11T07:36:51;1.90;71.30
69628;DHT22;56850;51.984;5.088;2023-03-11T07:39:18;1.90;71.40
69628;DHT22;56850;51.984;5.088;2023-03-11T07:41:45;2.00;71.30
69628;DHT22;56850;51.984;5.088;2023-03-11T07:44:13;2.00;71.30
69628;DHT22;56850;51.984;5.088;2023-03-11T07:46:41;2.10;71.30
69628;DHT22;56850;51.984;5.088;2023-03-11T07:49:09;2.10;71.20
69628;DHT22;56850;51.984;5.088;2023-03-11T07:51:37;2.20;71.20
69628;DHT22;56850;51.984;5.088;2023-03-11T07:54:04;2.30;71.30
69628;DHT22;56850;51.984;5.088;2023-03-11T07:56:33;2.30;71.20
69628;DHT22;56850;51.984;5.088;2023-03-11T07:59:01;2.40;71.20
69628;DHT22;56850;51.984;5.088;2023-03-11T08:01:29;2.40;71.00
69628;DHT22;56850;51.984;5.088;2023-03-11T08:04:04;2.50;70.90
69628;DHT22;56850;51.984;5.088;2023-03-11T08:06:32;2.60;70.90
69628;DHT22;56850;51.984;5.088;2023-03-11T08:09:02;2.60;70.70
69628;DHT22;56850;51.984;5.088;2023-03-11T08:11:30;2.70;70.70
69628;DHT22;56850;51.984;5.088;2023-03-11T08:13:58;2.80;70.70
69628;DHT22;56850;51.984;5.088;2023-03-11T08:16:25;2.90;70.60
69628;DHT22;56850;51.984;5.088;2023-03-11T08:18:53;2.90;70.50
69628;DHT22;56850;51.984;5.088;2023-03-11T08:21:23;3.00;70.40
69628;DHT22;56850;51.984;5.088;2023-03-11T08:23:51;3.00;70.20
69628;DHT22;56850;51.984;5.088;2023-03-11T08:26:20;3.10;70.00
69628;DHT22;56850;51.984;5.088;2023-03-11T08:28:48;3.20;70.00
69628;DHT22;56850;51.984;5.088;2023-03-11T08:31:23;3.20;69.90
69628;DHT22;56850;51.984;5.088;2023-03-11T08:33:54;3.30;69.30
69628;DHT22;56850;51.984;5.088;2023-03-11T08:36:22;3.40;69.20
69628;DHT22;56850;51.984;5.088;2023-03-11T08:38:49;3.60;69.10
69628;DHT22;56850;51.984;5.088;2023-03-11T08:41:15;3.70;68.70
69628;DHT22;56850;51.984;5.088;2023-03-11T08:43:42;3.70;68.00
69628;DHT22;56850;51.984;5.088;2023-03-11T08:46:18;3.80;68.10
69628;DHT22;56850;51.984;5.088;2023-03-11T08:48:47;3.90;67.50
69628;DHT22;56850;51.984;5.088;2023-03-11T08:51:14;4.00;67.40
69628;DHT22;56850;51.984;5.088;2023-03-11T08:53:41;4.10;67.20
69628;DHT22;56850;51.984;5.088;2023-03-11T08:56:08;4.20;66.90
69628;DHT22;56850;51.984;5.088;2023-03-11T08:58:35;4.20;66.50
69628;DHT22;56850;51.984;5.088;2023-03-11T09:01:03;4.30;66.00
69628;DHT22;56850;51.984;5.088;2023-03-11T09:03:32;4.40;66.10
69628;DHT22;56850;51.984;5.088;2023-03-11T09:06:03;4.50;65.30
69628;DHT22;56850;51.984;5.088;2023-03-11T09:08:30;4.60;64.90
69628;DHT22;56850;51.984;5.088;2023-03-11T09:10:57;4.60;64.70
69628;DHT22;56850;51.984;5.088;2023-03-11T09:13:24;4.70;64.50
69628;DHT22;56850;51.984;5.088;2023-03-11T09:15:52;4.90;64.20
69628;DHT22;56850;51.984;5.088;2023-03-11T09:18:19;5.00;64.10
69628;DHT22;56850;51.984;5.088;2023-03-11T09:20:46;5.20;63.40
69628;DHT22;56850;51.984;5.088;2023-03-11T09:23:15;5.30;62.70
69628;DHT22;56850;51.984;5.088;2023-03-11T09:25:42;5.40;62.30
69628;DHT22;56850;51.984;5.088;2023-03-11T09:28:09;5.50;62.30
69628;DHT22;56850;51.984;5.088;2023-03-11T09:30:36;5.60;61.80
69628;DHT22;56850;51.984;5.088;2023-03-11T09:33:03;5.70;61.60
69628;DHT22;56850;51.984;5.088;2023-03-11T09:35:30;5.80;61.60
69628;DHT22;56850;51.984;5.088;2023-03-11T09:37:57;5.80;61.00
69628;DHT22;56850;51.984;5.088;2023-03-11T09:40:27;5.90;60.90
69628;DHT22;56850;51.984;5.088;2023-03-11T09:45:30;6.10;60.50
69628;DHT22;56850;51.984;5.088;2023-03-11T09:48:18;6.10;60.00
69628;DHT22;56850;51.984;5.088;2023-03-11T09:51:04;6.20;59.30
69628;DHT22;56850;51.984;5.088;2023-03-11T09:53:41;6.30;59.60
69628;DHT22;56850;51.984;5.088;2023-03-11T09:56:14;6.40;59.60
69628;DHT22;56850;51.984;5.088;2023-03-11T09:58:49;6.50;58.50
69628;DHT22;56850;51.984;5.088;2023-03-11T10:01:22;6.60;58.60
69628;DHT22;56850;51.984;5.088;2023-03-11T10:03:51;6.60;58.10
69628;DHT22;56850;51.984;5.088;2023-03-11T10:06:26;6.60;57.70
69628;DHT22;56850;51.984;5.088;2023-03-11T10:09:38;6.70;57.80
69628;DHT22;56850;51.984;5.088;2023-03-11T10:17:45;6.30;57.50
69628;DHT22;56850;51.984;5.088;2023-03-11T10:20:29;6.30;57.70
69628;DHT22;56850;51.984;5.088;2023-03-11T10:23:24;6.30;58.10
69628;DHT22;56850;51.984;5.088;2023-03-11T10:28:47;6.50;58.00
69628;DHT22;56850;51.984;5.088;2023-03-11T10:34:01;6.70;56.90
69628;DHT22;56850;51.984;5.088;2023-03-11T10:36:39;6.70;56.90
69628;DHT22;56850;51.984;5.088;2023-03-11T10:39:09;6.60;56.60
69628;DHT22;56850;51.984;5.088;2023-03-11T10:41:53;6.60;56.30
69628;DHT22;56850;51.984;5.088;2023-03-11T10:44:38;6.60;56.60
69628;DHT22;56850;51.984;5.088;2023-03-11T10:47:06;6.70;56.40
69628;DHT22;56850;51.984;5.088;2023-03-11T10:49:38;6.70;56.20
69628;DHT22;56850;51.984;5.088;2023-03-11T10:52:05;6.70;55.70
69628;DHT22;56850;51.984;5.088;2023-03-11T10:54:36;6.60;55.70
69628;DHT22;56850;51.984;5.088;2023-03-11T10:57:20;6.60;55.90
69628;DHT22;56850;51.984;5.088;2023-03-11T10:59:49;6.70;55.80
69628;DHT22;56850;51.984;5.088;2023-03-11T11:02:21;6.70;55.80
69628;DHT22;56850;51.984;5.088;2023-03-11T11:05:01;6.70;55.70
69628;DHT22;56850;51.984;5.088;2023-03-11T11:07:31;6.80;56.00
69628;DHT22;56850;51.984;5.088;2023-03-11T11:15:36;7.50;54.50
69628;DHT22;56850;51.984;5.088;2023-03-11T11:18:12;7.90;54.70
69628;DHT22;56850;51.984;5.088;2023-03-11T11:20:53;8.10;54.00
69628;DHT22;56850;51.984;5.088;2023-03-11T11:23:27;8.30;53.50
69628;DHT22;56850;51.984;5.088;2023-03-11T11:25:59;8.50;53.40
69628;DHT22;56850;51.984;5.088;2023-03-11T11:28:27;8.60;53.20
69628;DHT22;56850;51.984;5.088;2023-03-11T11:31:02;8.80;52.70
69628;DHT22;56850;51.984;5.088;2023-03-11T11:33:34;8.80;52.40
69628;DHT22;56850;51.984;5.088;2023-03-11T11:36:05;8.90;52.10
69628;DHT22;56850;51.984;5.088;2023-03-11T11:38:37;9.00;51.80
69628;DHT22;56850;51.984;5.088;2023-03-11T11:41:05;9.00;50.90
69628;DHT22;56850;51.984;5.088;2023-03-11T11:43:48;8.90;50.30
69628;DHT22;56850;51.984;5.088;2023-03-11T11:46:20;9.00;50.90
69628;DHT22;56850;51.984;5.088;2023-03-11T11:49:15;9.00;49.90
69628;DHT22;56850;51.984;5.088;2023-03-11T11:52:07;8.90;50.00
69628;DHT22;56850;51.984;5.088;2023-03-11T11:54:44;9.00;50.50
69628;DHT22;56850;51.984;5.088;2023-03-11T11:57:22;9.20;50.50
69628;DHT22;56850;51.984;5.088;2023-03-11T11:59:50;9.40;50.20
69628;DHT22;56850;51.984;5.088;2023-03-11T12:02:45;9.60;50.30
69628;DHT22;56850;51.984;5.088;2023-03-11T12:05:39;9.80;49.10
69628;DHT22;56850;51.984;5.088;2023-03-11T12:16:04;10.10;47.70
69628;DHT22;56850;51.984;5.088;2023-03-11T12:18:45;10.20;48.00
69628;DHT22;56850;51.984;5.088;2023-03-11T12:24:35;10.50;46.50
69628;DHT22;56850;51.984;5.088;2023-03-11T12:27:31;10.50;46.10
69628;DHT22;56850;51.984;5.088;2023-03-11T12:30:13;10.40;46.00
69628;DHT22;56850;51.984;5.088;2023-03-11T12:33:11;10.50;46.50
69628;DHT22;56850;51.984;5.088;2023-03-11T12:35:47;10.60;46.00
69628;DHT22;56850;51.984;5.088;2023-03-11T12:46:11;11.00;44.90
69628;DHT22;56850;51.984;5.088;2023-03-11T12:49:09;10.90;44.50
69628;DHT22;56850;51.984;5.088;2023-03-11T12:51:39;11.00;44.90
69628;DHT22;56850;51.984;5.088;2023-03-11T12:54:31;11.10;44.40
69628;DHT22;56850;51.984;5.088;2023-03-11T13:05:05;11.00;44.20
69628;DHT22;56850;51.984;5.088;2023-03-11T13:07:53;11.00;44.00
69628;DHT22;56850;51.984;5.088;2023-03-11T13:10:42;11.10;44.50
69628;DHT22;56850;51.984;5.088;2023-03-11T13:16:43;11.10;43.80
69628;DHT22;56850;51.984;5.088;2023-03-11T13:18:47;11.20;44.30
69628;DHT22;56850;51.984;5.088;2023-03-11T13:27:02;11.50;43.00
69628;DHT22;56850;51.984;5.088;2023-03-11T13:38:30;11.40;41.40
69628;DHT22;56850;51.984;5.088;2023-03-11T13:40:47;11.30;41.40
69628;DHT22;56850;51.984;5.088;2023-03-11T13:43:23;11.30;41.40
69628;DHT22;56850;51.984;5.088;2023-03-11T13:46:02;11.30;40.50
69628;DHT22;56850;51.984;5.088;2023-03-11T13:48:45;11.20;40.30
69628;DHT22;56850;51.984;5.088;2023-03-11T13:51:34;11.20;40.90
69628;DHT22;56850;51.984;5.088;2023-03-11T13:54:13;11.20;40.70
69628;DHT22;56850;51.984;5.088;2023-03-11T13:57:10;11.10;39.80
69628;DHT22;56850;51.984;5.088;2023-03-11T13:59:37;11.10;40.20
69628;DHT22;56850;51.984;5.088;2023-03-11T14:04:35;11.30;39.70
69628;DHT22;56850;51.984;5.088;2023-03-11T14:07:16;11.20;40.20
69628;DHT22;56850;51.984;5.088;2023-03-11T14:09:45;11.10;40.30
69628;DHT22;56850;51.984;5.088;2023-03-11T14:12:12;11.10;39.90
69628;DHT22;56850;51.984;5.088;2023-03-11T14:14:46;11.10;40.30
69628;DHT22;56850;51.984;5.088;2023-03-11T14:17:17;11.20;40.00
69628;DHT22;56850;51.984;5.088;2023-03-11T14:20:05;11.20;39.20
69628;DHT22;56850;51.984;5.088;2023-03-11T14:22:33;11.20;39.00
69628;DHT22;56850;51.984;5.088;2023-03-11T14:25:08;11.10;38.10
69628;DHT22;56850;51.984;5.088;2023-03-11T14:27:37;11.10;38.60
69628;DHT22;56850;51.984;5.088;2023-03-11T14:30:05;11.20;38.10
69628;DHT22;56850;51.984;5.088;2023-03-11T14:32:33;11.20;38.20
69628;DHT22;56850;51.984;5.088;2023-03-11T14:35:00;11.10;37.90
69628;DHT22;56850;51.984;5.088;2023-03-11T14:37:36;11.00;38.00
69628;DHT22;56850;51.984;5.088;2023-03-11T14:40:20;10.90;38.50
69628;DHT22;56850;51.984;5.088;2023-03-11T14:42:48;10.90;39.00
69628;DHT22;56850;51.984;5.088;2023-03-11T14:45:22;10.90;38.90
69628;DHT22;56850;51.984;5.088;2023-03-11T14:50:45;10.90;39.20
69628;DHT22;56850;51.984;5.088;2023-03-11T14:53:22;11.10;39.30
69628;DHT22;56850;51.984;5.088;2023-03-11T14:55:56;11.10;39.30
69628;DHT22;56850;51.984;5.088;2023-03-11T14:58:45;11.20;39.50
69628;DHT22;56850;51.984;5.088;2023-03-11T15:01:29;11.10;39.10
69628;DHT22;56850;51.984;5.088;2023-03-11T15:03:58;11.00;39.50
69628;DHT22;56850;51.984;5.088;2023-03-11T15:06:31;11.00;39.20
69628;DHT22;56850;51.984;5.088;2023-03-11T15:09:04;10.90;39.30
69628;DHT22;56850;51.984;5.088;2023-03-11T15:11:47;10.90;39.60
69628;DHT22;56850;51.984;5.088;2023-03-11T15:14:31;11.00;39.80
69628;DHT22;56850;51.984;5.088;2023-03-11T15:17:27;11.10;39.50
69628;DHT22;56850;51.984;5.088;2023-03-11T15:20:23;11.10;38.30
69628;DHT22;56850;51.984;5.088;2023-03-11T15:23:18;11.00;37.50
69628;DHT22;56850;51.984;5.088;2023-03-11T15:25:48;10.90;37.50
69628;DHT22;56850;51.984;5.088;2023-03-11T15:28:22;10.80;37.80
69628;DHT22;56850;51.984;5.088;2023-03-11T15:33:40;10.90;38.20
69628;DHT22;56850;51.984;5.088;2023-03-11T15:36:30;10.90;37.80
69628;DHT22;56850;51.984;5.088;2023-03-11T15:39:11;11.00;38.00
69628;DHT22;56850;51.984;5.088;2023-03-11T15:41:47;11.10;38.30
69628;DHT22;56850;51.984;5.088;2023-03-11T15:46:56;11.40;38.50
69628;DHT22;56850;51.984;5.088;2023-03-11T15:49:26;11.30;37.60
69628;DHT22;56850;51.984;5.088;2023-03-11T15:52:00;11.20;37.60
69628;DHT22;56850;51.984;5.088;2023-03-11T15:54:28;11.10;37.00
69628;DHT22;56850;51.984;5.088;2023-03-11T15:56:56;11.00;37.30
69628;DHT22;56850;51.984;5.088;2023-03-11T15:59:24;10.90;37.10
69628;DHT22;56850;51.984;5.088;2023-03-11T16:01:51;10.80;37.20
69628;DHT22;56850;51.984;5.088;2023-03-11T16:04:19;10.80;37.30
69628;DHT22;56850;51.984;5.088;2023-03-11T16:06:47;10.80;37.50
69628;DHT22;56850;51.984;5.088;2023-03-11T16:09:32;10.90;37.10
69628;DHT22;56850;51.984;5.088;2023-03-11T16:12:00;11.00;37.60
69628;DHT22;56850;51.984;5.088;2023-03-11T16:14:27;11.00;36.70
69628;DHT22;56850;51.984;5.088;2023-03-11T16:16:54;10.90;36.50
69628;DHT22;56850;51.984;5.088;2023-03-11T16:19:21;10.90;36.80
69628;DHT22;56850;51.984;5.088;2023-03-11T16:21:48;10.90;36.60
69628;DHT22;56850;51.984;5.088;2023-03-11T16:24:21;10.80;36.90
69628;DHT22;56850;51.984;5.088;2023-03-11T16:26:49;10.90;37.40
69628;DHT22;56850;51.984;5.088;2023-03-11T16:29:18;10.90;37.20
69628;DHT22;56850;51.984;5.088;2023-03-11T16:31:45;10.80;37.50
69628;DHT22;56850;51.984;5.088;2023-03-11T16:34:13;10.80;37.10
69628;DHT22;56850;51.984;5.088;2023-03-11T16:36:40;10.70;36.40
69628;DHT22;56850;51.984;5.088;2023-03-11T16:39:06;10.60;36.40
69628;DHT22;56850;51.984;5.088;2023-03-11T16:41:41;10.50;36.20
69628;DHT22;56850;51.984;5.088;2023-03-11T16:44:08;10.30;36.10
69628;DHT22;56850;51.984;5.088;2023-03-11T16:46:36;10.20;36.20
69628;DHT22;56850;51.984;5.088;2023-03-11T16:49:03;10.20;36.60
69628;DHT22;56850;51.984;5.088;2023-03-11T16:51:31;10.10;36.70
69628;DHT22;56850;51.984;5.088;2023-03-11T16:53:58;10.10;36.40
69628;DHT22;56850;51.984;5.088;2023-03-11T16:56:25;10.00;36.60
69628;DHT22;56850;51.984;5.088;2023-03-11T16:58:52;9.90;36.60
69628;DHT22;56850;51.984;5.088;2023-03-11T17:01:19;9.80;36.70
69628;DHT22;56850;51.984;5.088;2023-03-11T17:03:48;9.70;36.70
69628;DHT22;56850;51.984;5.088;2023-03-11T17:06:17;9.70;36.80
69628;DHT22;56850;51.984;5.088;2023-03-11T17:08:44;9.60;37.10
69628;DHT22;56850;51.984;5.088;2023-03-11T17:11:19;9.50;37.10
69628;DHT22;56850;51.984;5.088;2023-03-11T17:13:46;9.50;37.40
69628;DHT22;56850;51.984;5.088;2023-03-11T17:16:13;9.40;37.60
69628;DHT22;56850;51.984;5.088;2023-03-11T17:18:40;9.40;38.00
69628;DHT22;56850;51.984;5.088;2023-03-11T17:21:11;9.40;38.20
69628;DHT22;56850;51.984;5.088;2023-03-11T17:23:38;9.30;38.50
69628;DHT22;56850;51.984;5.088;2023-03-11T17:26:10;9.40;38.70
69628;DHT22;56850;51.984;5.088;2023-03-11T17:28:38;9.40;38.70